createdAt,value
2022-10-16T00:00:21.021Z,100266.56
2022-10-16T00:05:18.925Z,100274.13
2022-10-16T00:07:45.411Z,100263.91
2022-10-16T00:10:11.933Z,100252.75
2022-10-16T00:12:38.462Z,100249.94
2022-10-16T00:15:05.553Z,100253.00
2022-10-16T00:17:32.032Z,100248.97
2022-10-16T00:19:58.865Z,100243.50
2022-10-16T00:22:44.097Z,100236.75
2022-10-16T00:25:10.594Z,100239.81
2022-10-16T00:27:37.082Z,100250.78
2022-10-16T00:30:04.297Z,100268.13
2022-10-16T00:32:31.113Z,100259.72
2022-10-16T00:34:57.689Z,100262.66
2022-10-16T00:37:24.169Z,100259.47
2022-10-16T00:39:50.606Z,100260.41
2022-10-16T00:42:18.969Z,100259.75
2022-10-16T00:44:57.887Z,100252.53
2022-10-16T00:47:31.563Z,100253.63
2022-10-16T00:50:10.304Z,100253.09
2022-10-16T00:52:40.316Z,100251.06
2022-10-16T00:55:07.527Z,100251.75
2022-10-16T00:57:33.974Z,100252.47
2022-10-16T01:00:00.901Z,100245.28
2022-10-16T01:02:27.635Z,100254.25
2022-10-16T01:04:55.310Z,100259.75
2022-10-16T01:07:34.349Z,100255.09
2022-10-16T01:10:28.096Z,100256.09
2022-10-16T01:13:00.121Z,100272.47
2022-10-16T01:15:32.607Z,100284.84
2022-10-16T01:18:09.337Z,100284.69
2022-10-16T01:20:39.056Z,100274.97
2022-10-16T01:23:50.578Z,100289.97
2022-10-16T01:26:43.183Z,100297.31
2022-10-16T01:29:30.916Z,100290.34
2022-10-16T01:32:02.578Z,100292.38
2022-10-16T01:34:59.885Z,100290.19
2022-10-16T01:37:36.066Z,100276.03
2022-10-16T01:40:06.918Z,100272.19
2022-10-16T01:42:38.862Z,100266.50
2022-10-16T01:45:14.097Z,100272.13
2022-10-16T01:47:41.604Z,100271.41
2022-10-16T01:50:09.433Z,100266.78
2022-10-16T01:52:40.062Z,100279.31
2022-10-16T01:55:09.644Z,100282.56
2022-10-16T01:57:40.796Z,100290.03
2022-10-16T02:00:11.549Z,100294.31
2022-10-16T02:02:40.903Z,100293.00
2022-10-16T02:05:41.213Z,100298.84
2022-10-16T02:08:08.037Z,100290.28
2022-10-16T02:10:36.803Z,100285.75
2022-10-16T02:13:34.448Z,100282.25
2022-10-16T02:16:00.913Z,100289.56
2022-10-16T02:18:30.186Z,100287.91
2022-10-16T02:21:01.388Z,100292.63
2022-10-16T02:23:38.127Z,100306.34
2022-10-16T02:26:08.636Z,100309.69
2022-10-16T02:28:43.040Z,100304.09
2022-10-16T02:31:12.514Z,100304.81
2022-10-16T02:33:42.004Z,100307.13
2022-10-16T02:36:09.138Z,100303.47
2022-10-16T02:38:37.299Z,100306.50
2022-10-16T02:41:06.097Z,100296.31
2022-10-16T02:43:34.329Z,100308.59
2022-10-16T02:46:01.210Z,100297.56
2022-10-16T02:48:27.697Z,100299.44
2022-10-16T02:50:54.137Z,100300.28
2022-10-16T02:53:20.867Z,100304.59
2022-10-16T02:55:47.399Z,100302.25
2022-10-16T02:58:13.873Z,100309.16
2022-10-16T03:00:40.487Z,100310.25
2022-10-16T03:03:07.056Z,100309.47
2022-10-16T03:05:33.461Z,100311.00
2022-10-16T03:08:01.589Z,100307.75
2022-10-16T03:10:28.558Z,100316.16
2022-10-16T03:12:55.030Z,100324.19
2022-10-16T03:15:21.528Z,100323.31
2022-10-16T03:17:48.075Z,100326.25
2022-10-16T03:20:14.725Z,100318.16
2022-10-16T03:22:41.168Z,100323.91
2022-10-16T03:25:08.142Z,100329.44
2022-10-16T03:27:34.569Z,100333.09
2022-10-16T03:30:01.039Z,100332.81
2022-10-16T03:32:29.538Z,100335.31
2022-10-16T03:34:57.318Z,100340.66
2022-10-16T03:37:25.019Z,100342.59
2022-10-16T03:39:52.390Z,100342.13
2022-10-16T03:42:18.909Z,100340.09
2022-10-16T03:44:45.428Z,100334.13
2022-10-16T03:47:11.898Z,100340.31
2022-10-16T03:49:38.371Z,100353.34
2022-10-16T03:52:04.859Z,100361.38
2022-10-16T03:54:31.323Z,100352.72
2022-10-16T03:56:57.785Z,100353.44
2022-10-16T03:59:24.265Z,100342.13
2022-10-16T04:01:50.720Z,100339.06
2022-10-16T04:04:17.270Z,100340.69
2022-10-16T04:06:43.740Z,100348.44
2022-10-16T04:09:10.202Z,100342.06
2022-10-16T04:11:36.712Z,100346.28
2022-10-16T04:14:03.461Z,100338.84
2022-10-16T04:16:29.933Z,100339.03
2022-10-16T04:18:56.471Z,100344.25
2022-10-16T04:21:23.345Z,100355.13
2022-10-16T04:23:50.309Z,100363.94
2022-10-16T04:26:16.831Z,100366.25
2022-10-16T04:28:43.846Z,100385.13
2022-10-16T04:31:10.344Z,100377.13
2022-10-16T04:33:36.795Z,100381.78
2022-10-16T04:36:04.478Z,100367.41
2022-10-16T04:38:31.434Z,100369.16
2022-10-16T04:40:57.914Z,100370.13
2022-10-16T04:43:24.853Z,100382.63
2022-10-16T04:45:55.611Z,100379.69
2022-10-16T04:48:22.050Z,100363.13
2022-10-16T04:50:52.978Z,100378.75
2022-10-16T04:53:21.716Z,100372.63
2022-10-16T04:55:48.307Z,100371.31
2022-10-16T04:58:14.843Z,100367.84
2022-10-16T05:00:41.386Z,100359.47
2022-10-16T05:03:09.571Z,100360.94
2022-10-16T05:05:37.330Z,100367.44
2022-10-16T05:08:04.918Z,100367.78
2022-10-16T05:10:31.430Z,100375.50
2022-10-16T05:12:58.018Z,100378.63
2022-10-16T05:15:25.918Z,100372.44
2022-10-16T05:17:56.533Z,100376.16
2022-10-16T05:20:23.808Z,100382.72
2022-10-16T05:22:50.316Z,100376.75
2022-10-16T05:25:16.857Z,100382.00
2022-10-16T05:27:43.350Z,100388.03
2022-10-16T05:30:12.397Z,100391.88
2022-10-16T05:32:39.257Z,100394.38
2022-10-16T05:35:07.606Z,100408.34
2022-10-16T05:37:36.657Z,100391.91
2022-10-16T05:40:05.824Z,100369.50
2022-10-16T05:42:32.273Z,100359.06
2022-10-16T05:44:58.742Z,100361.69
2022-10-16T05:47:25.562Z,100366.19
2022-10-16T05:49:52.278Z,100363.94
2022-10-16T05:52:18.777Z,100374.78
2022-10-16T05:54:45.294Z,100393.66
2022-10-16T05:57:11.728Z,100385.69
2022-10-16T05:59:38.799Z,100388.72
2022-10-16T06:02:05.304Z,100407.50
2022-10-16T06:04:31.792Z,100415.50
2022-10-16T06:07:01.566Z,100417.38
2022-10-16T06:09:28.412Z,100420.38
2022-10-16T06:11:55.033Z,100416.88
2022-10-16T06:14:21.529Z,100429.69
2022-10-16T06:16:48.621Z,100426.59
2022-10-16T06:19:16.234Z,100427.59
2022-10-16T06:21:42.907Z,100430.28
2022-10-16T06:24:09.490Z,100431.25
2022-10-16T06:26:35.930Z,100427.91
2022-10-16T06:29:02.763Z,100429.44
2022-10-16T06:31:31.908Z,100443.78
2022-10-16T06:33:58.897Z,100441.16
2022-10-16T06:36:26.476Z,100432.47
2022-10-16T06:38:53.519Z,100437.75
2022-10-16T06:41:22.676Z,100440.13
2022-10-16T06:43:49.606Z,100445.19
2022-10-16T06:46:19.200Z,100441.75
2022-10-16T06:48:46.226Z,100433.13
2022-10-16T06:51:15.564Z,100435.03
2022-10-16T06:54:04.013Z,100444.78
2022-10-16T06:56:32.689Z,100445.31
2022-10-16T06:58:59.983Z,100442.44
2022-10-16T07:01:27.183Z,100462.63
2022-10-16T07:03:54.197Z,100452.00
2022-10-16T07:06:24.147Z,100459.19
2022-10-16T07:08:51.045Z,100449.78
2022-10-16T07:11:21.384Z,100453.25
2022-10-16T07:13:52.703Z,100466.53
2022-10-16T07:16:24.574Z,100460.31
2022-10-16T07:18:55.223Z,100471.56
2022-10-16T07:21:23.664Z,100481.31
2022-10-16T07:23:55.122Z,100478.25
2022-10-16T07:26:22.655Z,100484.19
2022-10-16T07:28:49.880Z,100484.63
2022-10-16T07:31:17.518Z,100494.56
2022-10-16T07:33:45.961Z,100497.28
2022-10-16T07:36:16.228Z,100511.63
2022-10-16T07:38:43.691Z,100513.22
2022-10-16T07:41:15.588Z,100519.31
2022-10-16T07:43:49.969Z,100520.94
2022-10-16T07:46:17.399Z,100519.47
2022-10-16T07:48:46.891Z,100520.06
2022-10-16T07:51:16.298Z,100542.06
2022-10-16T07:53:43.113Z,100534.09
2022-10-16T07:56:09.957Z,100537.63
2022-10-16T07:58:38.090Z,100532.47
2022-10-16T08:01:10.574Z,100535.41
2022-10-16T08:03:37.487Z,100539.63
2022-10-16T08:06:05.202Z,100544.59
2022-10-16T08:08:31.985Z,100540.66
2022-10-16T08:10:58.878Z,100556.72
2022-10-16T08:13:25.504Z,100565.34
2022-10-16T08:15:52.088Z,100569.47
2022-10-16T08:18:18.642Z,100569.47
2022-10-16T08:20:45.150Z,100577.16
2022-10-16T08:23:14.016Z,100571.34
2022-10-16T08:25:41.826Z,100574.28
2022-10-16T08:28:11.112Z,100570.53
2022-10-16T08:30:38.065Z,100576.53
2022-10-16T08:33:04.920Z,100584.38
2022-10-16T08:35:31.440Z,100590.47
2022-10-16T08:37:57.927Z,100593.00
2022-10-16T08:40:27.387Z,100600.22
2022-10-16T08:43:13.221Z,100601.28
2022-10-16T08:46:08.790Z,100605.78
2022-10-16T08:48:52.387Z,100614.03
2022-10-16T08:51:27.977Z,100619.38
2022-10-16T08:53:57.841Z,100612.13
2022-10-16T08:56:25.696Z,100613.44
2022-10-16T08:58:56.629Z,100615.91
2022-10-16T09:01:40.230Z,100622.31
2022-10-16T09:04:37.554Z,100623.31
2022-10-16T09:07:22.481Z,100622.63
2022-10-16T09:09:51.983Z,100634.59
2022-10-16T09:12:32.898Z,100640.34
2022-10-16T09:15:08.582Z,100646.38
2022-10-16T09:18:00.419Z,100646.13
2022-10-16T09:20:48.629Z,100647.00
2022-10-16T09:23:23.073Z,100656.13
2022-10-16T09:25:50.793Z,100653.25
2022-10-16T09:28:19.297Z,100662.78
2022-10-16T09:30:46.606Z,100664.28
2022-10-16T09:33:15.327Z,100667.03
2022-10-16T09:35:47.342Z,100666.78
2022-10-16T09:38:29.746Z,100681.69
2022-10-16T09:41:02.459Z,100683.53
2022-10-16T09:43:32.357Z,100691.66
2022-10-16T09:46:05.311Z,100693.19
2022-10-16T09:48:44.111Z,100695.66
2022-10-16T09:51:22.211Z,100698.53
2022-10-16T09:53:49.408Z,100688.06
2022-10-16T09:56:27.897Z,100699.72
2022-10-16T09:58:58.313Z,100694.28
2022-10-16T10:01:31.819Z,100694.19
2022-10-16T10:04:03.652Z,100708.34
2022-10-16T10:06:41.497Z,100702.31
2022-10-16T10:09:19.990Z,100696.56
2022-10-16T10:11:51.533Z,100706.25
2022-10-16T10:14:20.425Z,100709.41
2022-10-16T10:16:47.505Z,100703.84
2022-10-16T10:19:22.490Z,100697.63
2022-10-16T10:21:51.151Z,100687.34
2022-10-16T10:24:19.566Z,100690.28
2022-10-16T10:26:52.942Z,100691.84
2022-10-16T10:29:33.906Z,100689.41
2022-10-16T10:32:12.861Z,100689.28
2022-10-16T10:34:55.896Z,100689.16
2022-10-16T10:37:53.463Z,100691.34
2022-10-16T10:40:36.586Z,100691.88
2022-10-16T10:43:15.000Z,100693.00
2022-10-16T10:45:48.006Z,100690.25
2022-10-16T10:48:25.345Z,100689.56
2022-10-16T10:51:02.272Z,100687.84
2022-10-16T10:53:40.952Z,100688.72
2022-10-16T10:56:29.079Z,100690.53
2022-10-16T10:59:02.865Z,100696.31
2022-10-16T11:01:46.931Z,100685.00
2022-10-16T11:04:33.881Z,100688.00
2022-10-16T11:07:04.765Z,100679.84
2022-10-16T11:09:39.277Z,100685.63
2022-10-16T11:12:19.830Z,100675.16
2022-10-16T11:15:01.333Z,100675.72
2022-10-16T11:17:36.232Z,100670.75
2022-10-16T11:20:20.795Z,100670.28
2022-10-16T11:23:30.597Z,100680.72
2022-10-16T11:26:01.595Z,100685.47
2022-10-16T11:28:31.740Z,100684.28
2022-10-16T11:31:04.728Z,100678.84
2022-10-16T11:33:38.557Z,100685.78
2022-10-16T11:36:13.179Z,100683.19
2022-10-16T11:38:59.659Z,100681.88
2022-10-16T11:41:33.596Z,100684.03
2022-10-16T11:44:28.227Z,100683.19
2022-10-16T11:47:39.922Z,100682.34
2022-10-16T11:50:33.078Z,100686.06
2022-10-16T11:53:19.529Z,100690.84
2022-10-16T11:55:47.332Z,100690.31
2022-10-16T11:58:42.471Z,100686.09
2022-10-16T12:01:22.329Z,100688.13
2022-10-16T12:04:15.177Z,100683.09
2022-10-16T12:07:04.862Z,100685.06
2022-10-16T12:09:33.795Z,100681.06
2022-10-16T12:12:00.447Z,100676.81
2022-10-16T12:14:33.193Z,100681.47
2022-10-16T12:17:03.015Z,100684.22
2022-10-16T12:19:31.543Z,100683.03
2022-10-16T12:22:01.285Z,100685.91
2022-10-16T12:24:38.764Z,100676.19
2022-10-16T12:27:31.764Z,100674.72
2022-10-16T12:30:01.501Z,100672.91
2022-10-16T12:32:53.409Z,100671.28
2022-10-16T12:35:27.289Z,100677.94
2022-10-16T12:37:54.444Z,100672.59
2022-10-16T12:40:30.706Z,100674.72
2022-10-16T12:42:57.817Z,100692.69
2022-10-16T12:45:33.275Z,100686.31
2022-10-16T12:48:06.052Z,100681.31
2022-10-16T12:50:38.056Z,100686.66
2022-10-16T12:53:19.000Z,100696.88
2022-10-16T12:55:59.199Z,100690.31
2022-10-16T12:59:09.090Z,100697.38
2022-10-16T13:02:00.551Z,100705.47
2022-10-16T13:04:59.607Z,100694.00
2022-10-16T13:07:32.085Z,100686.28
2022-10-16T13:10:06.493Z,100692.78
2022-10-16T13:12:57.908Z,100701.06
2022-10-16T13:15:24.437Z,100686.41
2022-10-16T13:18:13.711Z,100698.31
2022-10-16T13:21:09.319Z,100700.44
2022-10-16T13:23:57.973Z,100709.41
2022-10-16T13:26:30.403Z,100707.63
2022-10-16T13:29:01.824Z,100715.66
2022-10-16T13:31:29.773Z,100709.22
2022-10-16T13:33:59.989Z,100702.78
2022-10-16T13:36:35.009Z,100700.78
2022-10-16T13:39:11.659Z,100707.28
2022-10-16T13:41:38.623Z,100710.78
2022-10-16T13:44:06.311Z,100703.53
2022-10-16T13:46:35.288Z,100700.41
2022-10-16T13:49:12.370Z,100703.13
2022-10-16T13:51:39.128Z,100703.69
2022-10-16T13:54:05.662Z,100700.63
2022-10-16T13:56:33.713Z,100701.53
2022-10-16T13:59:02.580Z,100704.72
2022-10-16T14:01:41.320Z,100705.41
2022-10-16T14:04:12.951Z,100694.31
2022-10-16T14:06:45.286Z,100694.88
2022-10-16T14:09:27.557Z,100695.59
2022-10-16T14:12:00.365Z,100693.47
2022-10-16T14:14:40.717Z,100690.81
2022-10-16T14:17:07.407Z,100687.88
2022-10-16T14:19:33.962Z,100687.56
2022-10-16T14:22:02.886Z,100680.81
2022-10-16T14:24:34.923Z,100671.94
2022-10-16T14:27:02.244Z,100686.13
2022-10-16T14:29:32.399Z,100694.56
2022-10-16T14:32:07.080Z,100701.81
2022-10-16T14:34:36.201Z,100710.00
2022-10-16T14:37:27.653Z,100696.69
2022-10-16T14:39:56.093Z,100704.00
2022-10-16T14:42:25.734Z,100703.44
2022-10-16T14:44:54.544Z,100700.03
2022-10-16T14:47:26.357Z,100707.44
2022-10-16T14:49:59.900Z,100705.50
2022-10-16T14:52:26.687Z,100715.41
2022-10-16T14:54:57.370Z,100703.19
2022-10-16T14:57:28.223Z,100703.81
2022-10-16T14:59:55.136Z,100699.25
2022-10-16T15:02:29.088Z,100702.41
2022-10-16T15:04:56.268Z,100700.13
2022-10-16T15:07:23.693Z,100706.31
2022-10-16T15:09:50.314Z,100698.97
2022-10-16T15:12:17.772Z,100704.44
2022-10-16T15:14:44.457Z,100702.38
2022-10-16T15:17:12.000Z,100697.69
2022-10-16T15:19:38.808Z,100701.56
2022-10-16T15:22:05.346Z,100701.38
2022-10-16T15:24:31.959Z,100701.13
2022-10-16T15:26:58.453Z,100705.53
2022-10-16T15:29:24.938Z,100700.91
2022-10-16T15:31:51.527Z,100705.69
2022-10-16T15:34:20.001Z,100712.25
2022-10-16T15:36:46.597Z,100708.00
2022-10-16T15:39:16.226Z,100718.38
2022-10-16T15:41:43.769Z,100723.41
2022-10-16T15:44:10.425Z,100718.25
2022-10-16T15:46:38.117Z,100717.84
2022-10-16T15:49:05.269Z,100721.56
2022-10-16T15:51:33.992Z,100716.22
2022-10-16T15:54:02.668Z,100729.66
2022-10-16T15:56:29.535Z,100724.22
2022-10-16T15:58:56.192Z,100731.19
2022-10-16T16:01:22.919Z,100733.88
2022-10-16T16:03:55.179Z,100731.16
2022-10-16T16:06:24.632Z,100741.78
2022-10-16T16:08:51.998Z,100729.22
2022-10-16T16:11:21.400Z,100727.53
2022-10-16T16:13:47.886Z,100724.88
2022-10-16T16:16:17.176Z,100722.63
2022-10-16T16:18:44.306Z,100726.69
2022-10-16T16:21:12.650Z,100728.69
2022-10-16T16:23:39.483Z,100731.69
2022-10-16T16:26:26.833Z,100735.78
2022-10-16T16:28:54.947Z,100735.69
2022-10-16T16:31:24.854Z,100741.69
2022-10-16T16:33:52.257Z,100738.25
2022-10-16T16:36:19.244Z,100739.69
2022-10-16T16:38:47.074Z,100740.88
2022-10-16T16:41:14.357Z,100736.03
2022-10-16T16:43:40.926Z,100741.94
2022-10-16T16:46:07.423Z,100734.00
2022-10-16T16:48:34.371Z,100733.41
2022-10-16T16:51:09.194Z,100743.56
2022-10-16T16:53:36.337Z,100747.25
2022-10-16T16:56:05.148Z,100749.66
2022-10-16T16:58:32.688Z,100752.97
2022-10-16T17:01:18.932Z,100756.06
2022-10-16T17:03:47.205Z,100760.56
2022-10-16T17:06:20.350Z,100761.75
2022-10-16T17:08:48.054Z,100767.16
2022-10-16T17:11:16.725Z,100765.22
2022-10-16T17:13:43.274Z,100774.94
2022-10-16T17:16:10.436Z,100774.53
2022-10-16T17:18:37.197Z,100766.06
2022-10-16T17:21:07.319Z,100770.22
2022-10-16T17:23:35.231Z,100772.44
2022-10-16T17:26:08.999Z,100774.53
2022-10-16T17:28:35.575Z,100770.22
2022-10-16T17:31:16.983Z,100770.94
2022-10-16T17:33:44.775Z,100773.47
2022-10-16T17:36:14.439Z,100777.22
2022-10-16T17:38:42.521Z,100780.72
2022-10-16T17:41:23.797Z,100785.38
2022-10-16T17:43:51.324Z,100782.38
2022-10-16T17:46:19.607Z,100785.41
2022-10-16T17:48:48.597Z,100790.84
2022-10-16T17:51:20.606Z,100793.63
2022-10-16T17:53:56.814Z,100795.94
2022-10-16T17:56:24.641Z,100797.53
2022-10-16T17:58:53.325Z,100798.50
2022-10-16T18:01:29.810Z,100800.81
2022-10-16T18:04:04.581Z,100802.13
2022-10-16T18:06:32.264Z,100794.41
2022-10-16T18:09:00.203Z,100804.78
2022-10-16T18:11:27.958Z,100812.97
2022-10-16T18:13:56.558Z,100812.81
2022-10-16T18:16:23.750Z,100807.09
2022-10-16T18:18:50.644Z,100815.97
2022-10-16T18:21:19.610Z,100814.75
2022-10-16T18:23:50.944Z,100818.31
2022-10-16T18:26:20.370Z,100813.50
2022-10-16T18:28:47.338Z,100813.00
2022-10-16T18:31:16.319Z,100814.50
2022-10-16T18:33:48.512Z,100816.31
2022-10-16T18:36:16.946Z,100819.91
2022-10-16T18:38:43.629Z,100815.34
2022-10-16T18:41:11.095Z,100823.00
2022-10-16T18:43:38.932Z,100826.75
2022-10-16T18:46:19.908Z,100830.59
2022-10-16T18:48:47.473Z,100825.97
2022-10-16T18:51:18.322Z,100837.22
2022-10-16T18:53:47.443Z,100832.66
2022-10-16T18:56:15.051Z,100834.59
2022-10-16T18:58:43.518Z,100830.81
2022-10-16T19:01:16.504Z,100831.59
2022-10-16T19:03:43.788Z,100832.41
2022-10-16T19:06:12.750Z,100827.78
2022-10-16T19:08:40.207Z,100829.72
2022-10-16T19:11:12.156Z,100830.06
2022-10-16T19:13:39.070Z,100834.56
2022-10-16T19:16:26.775Z,100838.94
2022-10-16T19:18:55.324Z,100835.09
2022-10-16T19:21:22.450Z,100837.97
2022-10-16T19:23:57.128Z,100833.59
2022-10-16T19:26:25.200Z,100831.66
2022-10-16T19:28:53.574Z,100831.22
2022-10-16T19:31:22.757Z,100829.00
2022-10-16T19:33:54.376Z,100834.81
2022-10-16T19:36:26.121Z,100832.53
2022-10-16T19:38:55.494Z,100835.25
2022-10-16T19:41:23.786Z,100832.88
2022-10-16T19:43:51.161Z,100835.69
2022-10-16T19:46:19.731Z,100834.94
2022-10-16T19:48:48.226Z,100830.75
2022-10-16T19:51:18.324Z,100835.69
2022-10-16T19:53:46.758Z,100837.22
2022-10-16T19:56:18.185Z,100851.03
2022-10-16T19:58:45.896Z,100850.22
2022-10-16T20:01:15.276Z,100847.19
2022-10-16T20:03:46.184Z,100853.31
2022-10-16T20:06:13.586Z,100848.72
2022-10-16T20:08:41.909Z,100865.53
2022-10-16T20:11:27.353Z,100868.59
2022-10-16T20:13:54.281Z,100873.88
2022-10-16T20:16:22.193Z,100870.84
2022-10-16T20:18:50.325Z,100871.66
2022-10-16T20:21:20.391Z,100870.50
2022-10-16T20:23:48.896Z,100871.63
2022-10-16T20:26:15.873Z,100868.38
2022-10-16T20:28:43.279Z,100869.28
2022-10-16T20:31:31.207Z,100872.06
2022-10-16T20:34:01.168Z,100870.91
2022-10-16T20:36:30.471Z,100870.16
2022-10-16T20:38:57.465Z,100865.59
2022-10-16T20:41:24.490Z,100878.97
2022-10-16T20:43:52.272Z,100877.44
2022-10-16T20:46:26.502Z,100870.19
2022-10-16T20:48:54.333Z,100878.59
2022-10-16T20:51:25.515Z,100879.41
2022-10-16T20:53:54.967Z,100886.25
2022-10-16T20:56:21.674Z,100885.88
2022-10-16T20:58:48.459Z,100883.13
2022-10-16T21:01:26.421Z,100882.44
2022-10-16T21:03:58.702Z,100890.09
2022-10-16T21:06:26.237Z,100887.41
2022-10-16T21:08:53.275Z,100887.00
2022-10-16T21:11:21.151Z,100890.84
2022-10-16T21:13:48.101Z,100884.75
2022-10-16T21:16:15.599Z,100887.44
2022-10-16T21:18:45.593Z,100878.59
2022-10-16T21:21:30.280Z,100890.06
2022-10-16T21:23:58.005Z,100894.31
2022-10-16T21:26:28.658Z,100885.13
2022-10-16T21:29:00.774Z,100888.53
2022-10-16T21:31:27.846Z,100885.13
2022-10-16T21:33:55.328Z,100893.16
2022-10-16T21:36:33.512Z,100885.38
2022-10-16T21:39:12.519Z,100875.47
2022-10-16T21:41:39.938Z,100888.56
2022-10-16T21:44:07.293Z,100885.84
2022-10-16T21:46:35.912Z,100882.38
2022-10-16T21:49:08.233Z,100890.84
2022-10-16T21:51:40.138Z,100895.47
2022-10-16T21:54:09.521Z,100900.03
2022-10-16T21:56:36.054Z,100895.47
2022-10-16T21:59:02.703Z,100890.84
2022-10-16T22:01:30.743Z,100888.19
2022-10-16T22:03:58.072Z,100885.69
2022-10-16T22:06:27.633Z,100893.91
2022-10-16T22:08:57.381Z,100885.88
2022-10-16T22:11:27.846Z,100893.19
2022-10-16T22:13:56.720Z,100896.97
2022-10-16T22:16:25.912Z,100896.59
2022-10-16T22:18:54.818Z,100896.22
2022-10-16T22:21:21.712Z,100893.16
2022-10-16T22:23:48.384Z,100888.47
2022-10-16T22:26:15.226Z,100886.63
2022-10-16T22:28:42.173Z,100894.28
2022-10-16T22:31:11.299Z,100891.59
2022-10-16T22:33:38.600Z,100893.09
2022-10-16T22:36:06.789Z,100892.75
2022-10-16T22:38:34.596Z,100897.69
2022-10-16T22:41:06.306Z,100896.16
2022-10-16T22:43:36.888Z,100889.22
2022-10-16T22:46:05.327Z,100897.59
2022-10-16T22:48:31.836Z,100897.66
2022-10-16T22:50:58.368Z,100900.63
2022-10-16T22:53:25.201Z,100892.19
2022-10-16T22:55:51.846Z,100904.06
2022-10-16T22:58:18.480Z,100904.44
2022-10-16T23:00:45.011Z,100917.88
2022-10-16T23:03:12.016Z,100929.06
2022-10-16T23:05:42.070Z,100929.41
2022-10-16T23:08:09.787Z,100934.84
2022-10-16T23:10:40.896Z,100936.00
2022-10-16T23:13:08.837Z,100938.72
2022-10-16T23:15:39.473Z,100940.97
2022-10-16T23:18:06.318Z,100931.31
2022-10-16T23:20:32.872Z,100940.66
2022-10-16T23:22:59.388Z,100942.13
2022-10-16T23:25:25.907Z,100935.22
2022-10-16T23:27:55.541Z,100930.50
2022-10-16T23:30:22.055Z,100935.13
2022-10-16T23:32:48.735Z,100932.63
2022-10-16T23:35:15.449Z,100943.47
2022-10-16T23:37:41.881Z,100943.94
2022-10-16T23:40:08.745Z,100944.28
2022-10-16T23:42:35.212Z,100951.47
2022-10-16T23:45:01.789Z,100960.19
2022-10-16T23:47:28.699Z,100961.84
2022-10-16T23:49:55.384Z,100961.59
2022-10-16T23:52:21.858Z,100966.78
2022-10-16T23:54:48.317Z,100966.69
2022-10-16T23:57:14.805Z,100964.06
2022-10-16T23:59:41.315Z,100959.06
